createdAt,value
2023-02-02T00:01:52.258Z,2.70
2023-02-02T00:04:29.866Z,2.00
2023-02-02T00:07:17.207Z,1.77
2023-02-02T00:09:46.868Z,1.60
2023-02-02T00:12:13.800Z,2.00
2023-02-02T00:14:40.670Z,2.03
2023-02-02T00:17:10.928Z,1.52
2023-02-02T00:19:37.800Z,1.85
2023-02-02T00:22:04.674Z,1.30
2023-02-02T00:24:31.603Z,2.10
2023-02-02T00:27:00.203Z,1.60
2023-02-02T00:29:30.987Z,2.65
2023-02-02T00:31:58.296Z,2.47
2023-02-02T00:34:25.607Z,1.85
2023-02-02T00:36:53.119Z,1.80
2023-02-02T00:39:26.112Z,2.40
2023-02-02T00:41:53.332Z,1.90
2023-02-02T00:44:38.729Z,2.20
2023-02-02T00:47:05.802Z,1.90
2023-02-02T00:49:32.898Z,2.00
2023-02-02T00:52:00.398Z,2.22
2023-02-02T00:54:27.986Z,1.58
2023-02-02T00:56:54.902Z,1.50
2023-02-02T00:59:21.814Z,1.80
2023-02-02T01:01:48.947Z,1.63
2023-02-02T01:04:15.993Z,2.20
2023-02-02T01:06:43.323Z,1.58
2023-02-02T01:09:10.336Z,2.03
2023-02-02T01:11:38.121Z,2.00
2023-02-02T01:14:06.004Z,1.77
2023-02-02T01:16:34.591Z,2.10
2023-02-02T01:19:02.056Z,2.08
2023-02-02T01:21:29.073Z,1.75
2023-02-02T01:23:56.896Z,2.05
2023-02-02T01:26:23.905Z,1.75
2023-02-02T01:28:50.797Z,2.70
2023-02-02T01:31:20.306Z,1.80
2023-02-02T01:33:49.336Z,2.67
2023-02-02T01:36:20.543Z,2.28
2023-02-02T01:38:48.937Z,3.05
2023-02-02T01:41:22.663Z,2.20
2023-02-02T01:44:03.212Z,2.10
2023-02-02T01:46:36.811Z,2.00
2023-02-02T01:49:16.394Z,1.90
2023-02-02T01:51:52.292Z,2.33
2023-02-02T01:54:39.140Z,1.90
2023-02-02T01:57:16.965Z,1.70
2023-02-02T01:59:47.816Z,1.88
2023-02-02T02:02:15.296Z,1.88
2023-02-02T02:04:43.721Z,1.85
2023-02-02T02:07:12.104Z,2.25
2023-02-02T02:09:39.942Z,1.75
2023-02-02T02:12:15.498Z,1.58
2023-02-02T02:15:06.256Z,1.73
2023-02-02T02:17:45.151Z,2.78
2023-02-02T02:21:10.482Z,2.05
2023-02-02T02:24:46.724Z,2.60
2023-02-02T02:28:06.704Z,1.98
2023-02-02T02:30:50.973Z,2.28
2023-02-02T02:33:50.803Z,1.75
2023-02-02T02:36:44.538Z,2.08
2023-02-02T02:39:37.543Z,1.42
2023-02-02T02:42:18.903Z,1.83
2023-02-02T02:44:49.319Z,1.70
2023-02-02T02:47:18.846Z,1.50
2023-02-02T02:49:48.951Z,2.00
2023-02-02T02:52:16.437Z,1.80
2023-02-02T02:54:56.398Z,1.70
2023-02-02T02:57:44.751Z,1.75
2023-02-02T03:00:32.338Z,2.05
2023-02-02T03:03:23.678Z,1.60
2023-02-02T03:06:27.991Z,2.17
2023-02-02T03:09:08.578Z,2.22
2023-02-02T03:11:35.874Z,1.60
2023-02-02T03:14:04.296Z,1.70
2023-02-02T03:16:31.189Z,1.50
2023-02-02T03:18:58.289Z,1.73
2023-02-02T03:21:25.251Z,1.83
2023-02-02T03:23:52.157Z,1.50
2023-02-02T03:26:19.260Z,2.08
2023-02-02T03:28:46.401Z,1.55
2023-02-02T03:31:14.041Z,1.73
2023-02-02T03:33:41.212Z,1.73
2023-02-02T03:36:08.818Z,1.67
2023-02-02T03:38:35.875Z,2.33
2023-02-02T03:41:03.033Z,1.40
2023-02-02T03:43:29.929Z,1.75
2023-02-02T03:46:04.362Z,1.75
2023-02-02T03:48:32.098Z,1.40
2023-02-02T03:50:58.994Z,1.83
2023-02-02T03:53:25.922Z,1.98
2023-02-02T03:55:52.798Z,1.75
2023-02-02T03:58:22.239Z,1.50
2023-02-02T04:00:49.687Z,2.03
2023-02-02T04:03:16.613Z,1.88
2023-02-02T04:05:43.542Z,1.40
2023-02-02T04:08:10.478Z,1.65
2023-02-02T04:10:39.604Z,2.05
2023-02-02T04:13:06.480Z,2.47
2023-02-02T04:15:33.431Z,1.50
2023-02-02T04:18:00.283Z,1.30
2023-02-02T04:20:27.170Z,2.03
2023-02-02T04:22:54.936Z,2.03
2023-02-02T04:25:21.854Z,1.42
2023-02-02T04:27:48.769Z,2.50
2023-02-02T04:30:15.815Z,1.55
2023-02-02T04:32:42.653Z,1.48
2023-02-02T04:35:09.583Z,2.00
2023-02-02T04:37:36.451Z,2.33
2023-02-02T04:40:04.320Z,1.77
2023-02-02T04:42:32.823Z,2.17
2023-02-02T04:44:59.760Z,1.70
2023-02-02T04:47:26.620Z,2.33
2023-02-02T04:49:53.465Z,1.83
2023-02-02T04:52:20.400Z,1.70
2023-02-02T04:54:47.405Z,2.17
2023-02-02T04:57:14.279Z,2.83
2023-02-02T04:59:42.562Z,1.98
2023-02-02T05:02:09.818Z,1.73
2023-02-02T05:04:36.679Z,2.67
2023-02-02T05:07:03.704Z,1.98
2023-02-02T05:09:30.621Z,2.28
2023-02-02T05:11:57.463Z,1.77
2023-02-02T05:14:27.264Z,3.15
2023-02-02T05:16:54.407Z,1.98
2023-02-02T05:19:21.412Z,2.20
2023-02-02T05:21:51.099Z,2.85
2023-02-02T05:24:18.304Z,2.15
2023-02-02T05:26:45.295Z,1.65
2023-02-02T05:29:12.286Z,1.67
2023-02-02T05:31:39.391Z,2.40
2023-02-02T05:34:06.930Z,2.55
2023-02-02T05:36:33.899Z,2.33
2023-02-02T05:39:01.020Z,2.72
2023-02-02T05:41:28.494Z,2.50
2023-02-02T05:43:55.615Z,2.38
2023-02-02T05:46:23.446Z,2.30
2023-02-02T05:48:50.470Z,2.85
2023-02-02T05:51:25.541Z,2.15
2023-02-02T05:53:52.535Z,2.13
2023-02-02T05:56:19.445Z,2.58
2023-02-02T05:58:49.649Z,2.42
2023-02-02T06:01:18.759Z,2.63
2023-02-02T06:03:45.846Z,2.90
2023-02-02T06:06:13.769Z,2.30
2023-02-02T06:08:40.707Z,1.95
2023-02-02T06:11:13.062Z,2.95
2023-02-02T06:13:40.094Z,2.10
2023-02-02T06:16:10.896Z,1.75
2023-02-02T06:18:38.791Z,2.38
2023-02-02T06:21:07.112Z,2.33
2023-02-02T06:23:37.248Z,1.92
2023-02-02T06:26:09.662Z,3.75
2023-02-02T06:28:40.539Z,2.60
2023-02-02T06:31:11.378Z,3.70
2023-02-02T06:33:39.116Z,2.42
2023-02-02T06:36:07.431Z,2.53
2023-02-02T06:38:35.789Z,2.80
2023-02-02T06:41:04.146Z,2.13
2023-02-02T06:43:31.535Z,2.78
2023-02-02T06:45:59.197Z,3.13
2023-02-02T06:48:27.849Z,2.05
2023-02-02T06:50:58.034Z,2.22
2023-02-02T06:53:26.566Z,2.40
2023-02-02T06:56:00.457Z,2.20
2023-02-02T06:58:55.073Z,2.83
2023-02-02T07:01:33.415Z,2.72
2023-02-02T07:04:00.700Z,2.50
2023-02-02T07:06:29.398Z,1.80
2023-02-02T07:09:01.201Z,2.08
2023-02-02T07:11:36.944Z,3.70
2023-02-02T07:14:53.725Z,2.55
2023-02-02T07:17:20.841Z,2.10
2023-02-02T07:19:47.826Z,2.10
2023-02-02T07:22:16.025Z,2.33
2023-02-02T07:24:42.932Z,3.00
2023-02-02T07:27:09.892Z,2.30
2023-02-02T07:29:37.266Z,2.85
2023-02-02T07:32:04.481Z,2.15
2023-02-02T07:34:32.586Z,2.05
2023-02-02T07:36:59.590Z,2.90
2023-02-02T07:39:26.480Z,1.80
2023-02-02T07:41:55.001Z,2.25
2023-02-02T07:44:34.560Z,2.13
2023-02-02T07:47:01.532Z,3.00
2023-02-02T07:49:28.463Z,3.30
2023-02-02T07:51:55.504Z,2.88
2023-02-02T07:54:24.473Z,3.05
2023-02-02T07:56:51.492Z,2.80
2023-02-02T07:59:18.677Z,3.38
2023-02-02T08:01:45.935Z,2.50
2023-02-02T08:04:13.811Z,2.72
2023-02-02T08:06:41.349Z,3.60
2023-02-02T08:09:12.756Z,2.55
2023-02-02T08:11:41.136Z,1.88
2023-02-02T08:14:08.256Z,2.42
2023-02-02T08:16:36.025Z,2.55
2023-02-02T08:19:03.975Z,2.58
2023-02-02T08:21:34.604Z,3.10
2023-02-02T08:24:03.033Z,2.30
2023-02-02T08:26:31.544Z,2.63
2023-02-02T08:29:04.070Z,3.40
2023-02-02T08:31:38.312Z,2.70
2023-02-02T08:34:05.941Z,2.72
2023-02-02T08:36:35.447Z,2.22
2023-02-02T08:39:07.475Z,2.55
2023-02-02T08:41:35.132Z,2.45
2023-02-02T08:44:05.472Z,2.55
2023-02-02T08:46:32.459Z,2.50
2023-02-02T08:48:59.602Z,2.35
2023-02-02T08:51:26.614Z,2.42
2023-02-02T08:53:54.810Z,1.90
2023-02-02T08:56:23.071Z,1.75
2023-02-02T08:58:55.140Z,2.25
2023-02-02T09:01:32.173Z,2.47
2023-02-02T09:04:06.428Z,3.30
2023-02-02T09:06:41.325Z,2.40
2023-02-02T09:09:14.287Z,2.70
2023-02-02T09:11:42.715Z,2.85
2023-02-02T09:14:13.340Z,2.35
2023-02-02T09:16:41.078Z,3.80
2023-02-02T09:19:08.386Z,2.83
2023-02-02T09:21:37.039Z,2.90
2023-02-02T09:24:10.343Z,2.40
2023-02-02T09:26:52.983Z,2.25
2023-02-02T09:29:20.168Z,2.40
2023-02-02T09:32:26.965Z,2.47
2023-02-02T09:38:06.492Z,2.60
2023-02-02T09:40:35.760Z,2.55
2023-02-02T09:43:42.592Z,3.08
2023-02-02T09:46:33.785Z,2.38
2023-02-02T09:49:11.495Z,3.65
2023-02-02T09:51:47.172Z,3.28
2023-02-02T09:54:22.959Z,2.80
2023-02-02T09:56:57.208Z,2.97
2023-02-02T09:59:49.327Z,3.67
2023-02-02T10:02:40.074Z,2.42
2023-02-02T10:05:17.116Z,3.50
2023-02-02T10:07:58.264Z,3.33
2023-02-02T10:10:51.887Z,2.80
2023-02-02T10:13:50.626Z,3.33
2023-02-02T10:16:23.733Z,2.80
2023-02-02T10:19:06.224Z,3.53
2023-02-02T10:22:12.428Z,3.40
2023-02-02T10:27:18.097Z,3.42
2023-02-02T10:29:58.994Z,3.47
2023-02-02T10:32:55.266Z,3.15
2023-02-02T10:35:44.949Z,2.88
2023-02-02T10:38:38.592Z,3.10
2023-02-02T10:41:28.683Z,3.15
2023-02-02T10:44:21.852Z,3.10
2023-02-02T10:46:58.102Z,3.60
2023-02-02T10:49:39.516Z,3.20
2023-02-02T10:52:18.323Z,3.30
2023-02-02T10:54:59.501Z,3.63
2023-02-02T10:58:13.052Z,2.88
2023-02-02T11:00:50.931Z,2.75
2023-02-02T11:03:44.125Z,3.58
2023-02-02T11:06:33.224Z,3.97
2023-02-02T11:09:01.173Z,3.53
2023-02-02T11:15:43.192Z,3.30
2023-02-02T11:18:30.852Z,3.15
2023-02-02T11:21:27.661Z,2.72
2023-02-02T11:24:02.903Z,2.75
2023-02-02T11:27:12.666Z,3.53
2023-02-02T11:29:59.140Z,2.80
2023-02-02T11:32:41.962Z,3.55
2023-02-02T11:35:29.924Z,3.15
2023-02-02T11:38:21.076Z,2.75
2023-02-02T11:41:08.104Z,2.80
2023-02-02T11:43:57.924Z,3.13
2023-02-02T11:46:32.934Z,2.75
2023-02-02T11:49:16.591Z,3.60
2023-02-02T11:52:25.772Z,3.85
2023-02-02T11:55:28.510Z,4.30
2023-02-02T11:58:42.218Z,3.25
2023-02-02T12:01:58.011Z,2.53
2023-02-02T12:04:26.213Z,2.78
2023-02-02T12:08:06.139Z,2.47
2023-02-02T12:11:04.112Z,3.35
2023-02-02T12:13:45.700Z,3.45
2023-02-02T12:16:53.400Z,2.42
2023-02-02T12:19:49.583Z,2.63
2023-02-02T12:23:05.664Z,3.08
2023-02-02T12:26:08.369Z,3.53
2023-02-02T12:29:13.866Z,3.10
2023-02-02T12:31:58.843Z,2.55
2023-02-02T12:34:40.783Z,2.40
2023-02-02T12:38:13.578Z,3.30
2023-02-02T12:45:15.758Z,3.10
2023-02-02T12:48:05.822Z,3.07
2023-02-02T12:52:18.190Z,3.00
2023-02-02T12:55:17.660Z,3.13
2023-02-02T12:58:24.745Z,3.35
2023-02-02T13:01:30.962Z,2.67
2023-02-02T13:06:37.731Z,2.00
2023-02-02T13:09:41.366Z,1.92
2023-02-02T13:12:16.919Z,2.50
2023-02-02T13:14:51.735Z,2.13
2023-02-02T13:17:29.036Z,1.83
2023-02-02T13:20:04.549Z,2.55
2023-02-02T13:22:43.449Z,2.10
2023-02-02T13:25:42.867Z,2.80
2023-02-02T13:28:54.045Z,2.25
2023-02-02T13:32:18.870Z,2.08
2023-02-02T13:34:59.168Z,2.58
2023-02-02T13:37:49.437Z,2.38
2023-02-02T13:40:43.668Z,2.20
2023-02-02T13:44:13.421Z,1.92
2023-02-02T13:46:57.116Z,1.20
2023-02-02T13:49:39.624Z,2.75
2023-02-02T13:52:53.772Z,2.15
2023-02-02T13:56:03.053Z,1.85
2023-02-02T13:58:48.885Z,2.10
2023-02-02T14:01:16.720Z,1.70
2023-02-02T14:03:54.121Z,2.20
2023-02-02T14:06:25.413Z,1.15
2023-02-02T14:09:02.927Z,1.70
2023-02-02T14:11:43.179Z,1.33
2023-02-02T14:14:31.990Z,1.70
2023-02-02T14:17:23.559Z,2.13
2023-02-02T14:19:59.429Z,1.83
2023-02-02T14:22:47.963Z,2.50
2023-02-02T14:25:34.542Z,1.85
2023-02-02T14:31:58.797Z,2.05
2023-02-02T14:34:47.139Z,2.22
2023-02-02T14:37:26.891Z,1.73
2023-02-02T14:40:35.076Z,2.00
2023-02-02T14:43:39.107Z,1.75
2023-02-02T14:46:34.423Z,2.10
2023-02-02T14:49:01.331Z,2.30
2023-02-02T14:51:31.969Z,1.90
2023-02-02T14:54:05.586Z,1.85
2023-02-02T14:56:50.134Z,2.55
2023-02-02T14:59:22.593Z,2.10
2023-02-02T15:02:01.712Z,1.60
2023-02-02T15:04:30.650Z,1.52
2023-02-02T15:07:23.291Z,2.08
2023-02-02T15:09:56.521Z,3.00
2023-02-02T15:12:45.024Z,2.20
2023-02-02T15:15:23.331Z,2.47
2023-02-02T15:18:14.420Z,2.05
2023-02-02T15:20:48.915Z,2.30
2023-02-02T15:23:36.380Z,2.10
2023-02-02T15:29:44.802Z,1.75
2023-02-02T15:32:37.223Z,2.15
2023-02-02T15:35:12.219Z,2.17
2023-02-02T15:37:42.129Z,2.33
2023-02-02T15:40:18.639Z,2.88
2023-02-02T15:42:55.390Z,3.35
2023-02-02T15:45:34.444Z,2.63
2023-02-02T15:48:10.210Z,2.10
2023-02-02T15:50:39.483Z,2.40
2023-02-02T15:53:06.618Z,2.00
2023-02-02T15:55:36.267Z,2.50
2023-02-02T15:58:04.467Z,1.98
2023-02-02T16:00:35.784Z,2.05
2023-02-02T16:03:25.072Z,2.42
2023-02-02T16:05:56.453Z,2.60
2023-02-02T16:08:34.809Z,2.30
2023-02-02T16:11:16.459Z,2.13
2023-02-02T16:14:20.255Z,1.83
2023-02-02T16:16:49.536Z,1.65
2023-02-02T16:19:24.499Z,2.10
2023-02-02T16:21:58.324Z,1.42
2023-02-02T16:24:37.024Z,1.48
2023-02-02T16:27:10.004Z,1.55
2023-02-02T16:29:40.236Z,1.25
2023-02-02T16:32:28.764Z,1.40
2023-02-02T16:34:56.791Z,1.30
2023-02-02T16:37:31.939Z,1.67
2023-02-02T16:40:30.634Z,2.08
2023-02-02T16:43:18.110Z,1.58
2023-02-02T16:45:53.848Z,1.67
2023-02-02T17:01:59.819Z,1.77
2023-02-02T17:04:30.639Z,1.65
2023-02-02T17:07:17.139Z,1.80
2023-02-02T17:09:48.287Z,1.65
2023-02-02T17:15:39.899Z,1.88
2023-02-02T17:18:06.830Z,2.13
2023-02-02T17:20:34.440Z,1.92
2023-02-02T17:23:23.797Z,2.85
2023-02-02T17:25:58.970Z,3.05
2023-02-02T17:33:14.882Z,3.90
2023-02-02T17:35:54.177Z,4.43
2023-02-02T17:38:27.673Z,4.05
2023-02-02T17:41:01.106Z,3.63
2023-02-02T17:43:33.402Z,4.20
2023-02-02T17:46:00.633Z,4.88
2023-02-02T17:49:06.880Z,5.47
2023-02-02T17:51:47.420Z,4.63
2023-02-02T17:54:18.482Z,3.40
2023-02-02T17:56:46.858Z,3.15
2023-02-02T17:59:13.740Z,2.83
2023-02-02T18:01:41.854Z,3.38
2023-02-02T18:04:12.988Z,3.03
2023-02-02T18:06:40.181Z,2.85
2023-02-02T18:09:07.516Z,3.38
2023-02-02T18:11:34.404Z,3.50
2023-02-02T18:14:01.312Z,3.42
2023-02-02T18:16:28.208Z,4.05
2023-02-02T18:18:56.533Z,3.60
2023-02-02T18:21:23.643Z,3.67
2023-02-02T18:23:50.758Z,4.07
2023-02-02T18:26:22.339Z,4.85
2023-02-02T18:28:52.053Z,4.65
2023-02-02T18:31:23.956Z,5.65
2023-02-02T18:33:55.020Z,5.28
2023-02-02T18:36:23.620Z,7.15
2023-02-02T18:38:51.627Z,5.30
2023-02-02T18:44:07.795Z,6.80
2023-02-02T18:46:34.791Z,6.53
2023-02-02T18:49:01.793Z,7.47
2023-02-02T18:51:28.823Z,7.63
2023-02-02T18:54:00.205Z,7.38
2023-02-02T18:56:29.223Z,8.55
2023-02-02T18:58:58.589Z,7.80
2023-02-02T19:01:30.472Z,8.15
2023-02-02T19:03:57.601Z,6.75
2023-02-02T19:06:48.252Z,6.43
2023-02-02T19:09:27.126Z,6.47
2023-02-02T19:11:59.944Z,8.32
2023-02-02T19:28:44.846Z,6.45
2023-02-02T19:31:38.753Z,6.60
2023-02-02T19:37:47.330Z,7.90
2023-02-02T19:40:22.451Z,6.70
2023-02-02T19:43:04.451Z,7.80
2023-02-02T19:45:36.538Z,7.95
2023-02-02T19:48:16.743Z,7.53
2023-02-02T19:50:44.662Z,6.70
2023-02-02T19:53:24.121Z,7.43
2023-02-02T20:00:43.998Z,7.50
2023-02-02T20:03:18.480Z,6.90
2023-02-02T20:05:52.076Z,6.68
2023-02-02T20:08:41.064Z,7.03
2023-02-02T20:11:35.808Z,7.00
2023-02-02T20:14:29.122Z,6.70
2023-02-02T20:17:16.491Z,5.63
2023-02-02T20:19:46.213Z,6.07
2023-02-02T20:22:33.908Z,6.15
2023-02-02T20:25:08.412Z,6.13
2023-02-02T20:36:54.112Z,4.72
2023-02-02T20:49:42.785Z,5.78
2023-02-02T21:09:44.807Z,4.43
2023-02-02T21:12:13.875Z,4.15
2023-02-02T21:14:41.735Z,4.40
2023-02-02T21:17:15.319Z,3.80
2023-02-02T21:19:44.047Z,5.03
2023-02-02T21:22:12.346Z,3.30
2023-02-02T21:24:39.616Z,4.28
2023-02-02T21:27:07.652Z,4.07
2023-02-02T21:29:35.108Z,4.63
2023-02-02T21:32:04.030Z,4.53
2023-02-02T21:34:32.210Z,5.57
2023-02-02T21:36:59.729Z,4.43
2023-02-02T21:39:36.301Z,4.43
2023-02-02T21:42:09.269Z,4.38
2023-02-02T21:44:53.543Z,4.65
2023-02-02T21:47:26.644Z,4.75
2023-02-02T21:49:58.733Z,4.70
2023-02-02T21:52:32.524Z,4.32
2023-02-02T21:55:09.419Z,4.78
2023-02-02T21:57:37.676Z,4.65
2023-02-02T22:00:34.928Z,4.43
2023-02-02T22:03:02.593Z,4.47
2023-02-02T22:05:36.476Z,5.07
2023-02-02T22:08:21.633Z,5.10
2023-02-02T22:10:50.274Z,5.07
2023-02-02T22:13:21.479Z,4.65
2023-02-02T22:15:51.782Z,4.70
2023-02-02T22:18:26.400Z,5.20
2023-02-02T22:20:56.431Z,4.20
2023-02-02T22:23:28.676Z,4.57
2023-02-02T22:25:58.143Z,4.70
2023-02-02T22:28:36.681Z,5.03
2023-02-02T22:31:06.517Z,5.10
2023-02-02T22:33:33.470Z,5.97
2023-02-02T22:36:00.372Z,4.97
2023-02-02T22:38:29.011Z,5.28
2023-02-02T22:40:56.163Z,4.80
2023-02-02T22:43:25.312Z,4.90
2023-02-02T22:45:52.231Z,4.70
2023-02-02T22:48:19.161Z,4.82
2023-02-02T22:50:54.647Z,4.93
2023-02-02T22:53:21.626Z,5.10
2023-02-02T22:55:48.998Z,5.20
2023-02-02T22:58:15.896Z,4.93
2023-02-02T23:00:42.825Z,5.28
2023-02-02T23:03:09.843Z,5.78
2023-02-02T23:05:36.998Z,5.00
2023-02-02T23:08:04.326Z,4.72
2023-02-02T23:10:35.384Z,4.03
2023-02-02T23:13:04.227Z,4.50
2023-02-02T23:15:31.135Z,4.03
2023-02-02T23:17:58.446Z,4.55
2023-02-02T23:20:25.512Z,4.80
2023-02-02T23:22:52.547Z,4.13
2023-02-02T23:25:19.975Z,4.07
2023-02-02T23:27:46.861Z,4.72
2023-02-02T23:30:22.099Z,4.22
2023-02-02T23:35:16.592Z,4.50
2023-02-02T23:37:43.491Z,4.93
2023-02-02T23:40:11.722Z,4.35
2023-02-02T23:42:38.648Z,4.18
2023-02-02T23:45:06.993Z,4.32
2023-02-02T23:47:35.128Z,3.95
2023-02-02T23:50:08.310Z,3.90
2023-02-02T23:52:36.858Z,4.22
2023-02-02T23:55:04.989Z,3.70
2023-02-02T23:57:33.760Z,3.80
